Time;durP1;ratioP1;P1;durP2;ratioP2;P2;SDS_P1;SDS_P2;PMS_P1;PMS_P2;Temp;Humidity;BMP_temperature;BMP_pressure;BME280_temperature;BME280_humidity;BME280_pressure;Samples;Min_cycle;Max_cycle;Signal;HPM_P1;HPM_P2
2023/03/26 00:01:00;;;;;;;6.50;1.80;;;;;;;3.37;100.00;92514.47;2527726;23;20010;-84
2023/03/26 00:02:01;;;;;;;8.23;1.60;;;;;;;3.34;100.00;92513.38;2504683;23;20011;-85
2023/03/26 00:03:03;;;;;;;5.30;1.00;;;;;;;3.30;100.00;92517.91;2504766;23;20014;-85
2023/03/26 00:04:06;;;;;;;4.72;1.35;;;;;;;3.30;100.00;92522.44;2517219;23;20666;-86
2023/03/26 00:05:08;;;;;;;4.55;1.23;;;;;;;3.39;100.00;92523.53;2516755;23;20018;-85
2023/03/26 00:06:14;;;;;;;6.28;1.75;;;;;;;3.44;100.00;92517.84;2505388;23;20093;-85
2023/03/26 00:07:16;;;;;;;4.93;1.30;;;;;;;3.42;100.00;92522.00;2542768;23;20006;-85
2023/03/26 00:08:17;;;;;;;4.85;1.30;;;;;;;3.33;100.00;92519.00;2539503;23;20112;-85
2023/03/26 00:09:18;;;;;;;6.03;1.40;;;;;;;3.17;100.00;92522.13;2527697;23;20005;-85
2023/03/26 00:10:19;;;;;;;3.83;1.15;;;;;;;3.10;100.00;92514.97;2528716;23;20005;-85
2023/03/26 00:11:22;;;;;;;5.13;1.30;;;;;;;3.03;100.00;92526.31;2528264;23;20005;-84
2023/03/26 00:12:24;;;;;;;5.85;1.10;;;;;;;2.99;100.00;92520.28;2540404;23;20383;-85
2023/03/26 00:13:26;;;;;;;5.60;1.50;;;;;;;2.97;100.00;92519.91;2516469;23;20053;-85
2023/03/26 00:14:28;;;;;;;5.57;1.30;;;;;;;2.90;100.00;92524.47;2516292;23;20008;-85
2023/03/26 00:15:30;;;;;;;4.93;1.35;;;;;;;2.92;100.00;92519.53;2516649;23;20013;-85
2023/03/26 00:16:32;;;;;;;4.32;1.20;;;;;;;2.94;100.00;92514.63;2528573;23;20565;-85
2023/03/26 00:17:33;;;;;;;4.78;0.82;;;;;;;2.88;100.00;92511.63;2540411;23;20012;-84
2023/03/26 00:18:34;;;;;;;3.90;1.10;;;;;;;2.78;100.00;92512.41;2540135;23;20009;-84
2023/03/26 00:19:35;;;;;;;2.90;1.08;;;;;;;2.72;100.00;92517.34;2527992;23;20093;-84
2023/03/26 00:20:37;;;;;;;4.88;1.20;;;;;;;2.75;100.00;92516.56;2527797;23;20006;-85
2023/03/26 00:21:38;;;;;;;5.40;1.42;;;;;;;2.76;100.00;92509.41;2528127;23;20010;-83
2023/03/26 00:22:40;;;;;;;6.63;1.23;;;;;;;2.73;100.00;92518.09;2540638;23;20009;-85
2023/03/26 00:23:42;;;;;;;7.32;1.33;;;;;;;2.76;100.00;92512.78;2528541;23;20013;-86
2023/03/26 00:24:44;;;;;;;4.63;1.23;;;;;;;2.74;100.00;92512.44;2516828;23;20034;-83
2023/03/26 00:25:49;;;;;;;3.45;1.27;;;;;;;2.66;100.00;92513.56;2528925;23;20015;-85
2023/03/26 00:26:52;;;;;;;2.25;1.00;;;;;;;2.63;100.00;92508.28;2527676;23;20492;-85
2023/03/26 00:27:53;;;;;;;5.40;1.63;;;;;;;2.62;100.00;92518.09;2516015;23;20013;-85
2023/03/26 00:28:54;;;;;;;7.05;1.58;;;;;;;2.62;100.00;92514.72;2516743;23;20493;-85
2023/03/26 00:29:55;;;;;;;7.68;1.70;;;;;;;2.55;100.00;92514.72;2531408;23;20473;-85
2023/03/26 00:30:59;;;;;;;6.80;1.50;;;;;;;2.57;100.00;92515.84;2531081;23;20013;-84
2023/03/26 00:32:00;;;;;;;5.13;1.40;;;;;;;2.62;100.00;92512.81;2531325;23;20010;-85
2023/03/26 00:33:02;;;;;;;5.20;1.50;;;;;;;2.65;100.00;92504.16;2531283;23;20076;-83
2023/03/26 00:34:04;;;;;;;5.90;1.50;;;;;;;2.71;100.00;92513.19;2519195;23;20010;-85
2023/03/26 00:35:05;;;;;;;3.85;1.20;;;;;;;2.89;100.00;92513.13;2519825;23;20085;-84
2023/03/26 00:36:16;;;;;;;2.63;1.10;;;;;;;2.76;100.00;92512.78;2519887;23;20006;-84
2023/03/26 00:37:17;;;;;;;;;;;;;;;2.77;100.00;92506.41;2544891;23;20012;-85
2023/03/26 00:38:19;;;;;;;5.78;1.27;;;;;;;2.75;100.00;92521.84;2530374;23;19909;-84
2023/03/26 00:39:22;;;;;;;9.00;1.45;;;;;;;2.73;100.00;92518.09;2519154;23;20524;-84
2023/03/26 00:40:24;;;;;;;6.63;1.20;;;;;;;2.68;100.00;92513.22;2519478;23;20003;-85
2023/03/26 00:41:25;;;;;;;4.80;1.52;;;;;;;2.68;100.00;92510.56;2519466;23;20089;-85
2023/03/26 00:42:27;;;;;;;4.38;1.30;;;;;;;2.65;100.00;92506.78;2543187;23;20009;-86
2023/03/26 00:43:31;;;;;;;3.25;1.20;;;;;;;2.64;100.00;92505.28;2531558;23;20048;-86
2023/03/26 00:44:33;;;;;;;6.82;1.27;;;;;;;2.65;100.00;92503.41;2543207;23;20016;-85
2023/03/26 00:45:35;;;;;;;7.00;1.27;;;;;;;2.66;100.00;92502.25;2531058;23;20020;-82
2023/03/26 00:46:37;;;;;;;5.32;1.33;;;;;;;2.63;100.00;92497.75;2543014;23;20005;-85
2023/03/26 00:47:39;;;;;;;5.20;1.30;;;;;;;2.60;100.00;92501.91;2530537;23;20089;-82
2023/03/26 00:48:46;;;;;;;2.88;1.20;;;;;;;2.52;100.00;92503.06;2519091;23;20419;-84
2023/03/26 00:49:48;;;;;;;6.38;2.03;;;;;;;2.60;100.00;92498.53;2519878;23;20561;-85
2023/03/26 00:50:49;;;;;;;2.58;1.10;;;;;;;2.50;100.00;92498.16;2518324;23;20009;-85
2023/03/26 00:51:50;;;;;;;8.60;1.63;;;;;;;2.52;100.00;92503.06;2530961;23;20016;-85
2023/03/26 00:52:54;;;;;;;4.28;1.30;;;;;;;2.49;100.00;92499.28;2531544;23;20017;-85
2023/03/26 00:53:56;;;;;;;4.30;1.42;;;;;;;2.53;100.00;92499.28;2555776;23;20056;-85
2023/03/26 00:54:57;;;;;;;5.88;1.42;;;;;;;2.58;100.00;92501.53;2555705;23;20001;-85
2023/03/26 00:55:59;;;;;;;4.68;1.25;;;;;;;2.70;100.00;92508.28;2531066;23;20082;-84
2023/03/26 00:57:00;;;;;;;5.82;1.38;;;;;;;2.65;100.00;92500.78;2518944;23;20430;-84
2023/03/26 00:58:01;;;;;;;4.38;1.08;;;;;;;2.66;100.00;92505.66;2506447;23;20077;-83
2023/03/26 00:59:03;;;;;;;4.60;1.27;;;;;;;2.58;100.00;92493.59;2518828;23;20366;-84
2023/03/26 01:00:13;;;;;;;4.90;1.23;;;;;;;2.56;100.00;92495.88;2518532;23;20342;-85
2023/03/26 01:01:31;;;;;;;7.13;1.20;;;;;;;2.61;100.00;92489.47;2519907;23;20013;-84
2023/03/26 01:02:32;;;;;;;3.35;1.30;;;;;;;2.60;100.00;92493.25;2525160;23;20338;-84
2023/03/26 01:03:36;;;;;;;7.97;1.45;;;;;;;2.56;100.00;92487.97;2529690;23;20002;-85
2023/03/26 01:04:37;;;;;;;2.40;1.23;;;;;;;2.51;100.00;92494.38;2532230;23;20025;-84
2023/03/26 01:06:12;;;;;;;3.22;1.00;;;;;;;2.48;100.00;92489.88;2543480;23;20009;-85
2023/03/26 01:07:20;;;;;;;6.97;1.00;;;;;;;2.40;100.00;92490.25;2482463;23;20034;-83
2023/03/26 01:08:32;;;;;;;5.82;1.30;;;;;;;2.44;100.00;92485.72;2500487;23;20485;-83
2023/03/26 01:09:36;;;;;;;3.63;1.17;;;;;;;2.43;100.00;92489.50;2510852;23;20011;-84
2023/03/26 01:10:37;;;;;;;6.25;1.00;;;;;;;2.58;100.00;92490.22;2532205;23;20012;-85
2023/03/26 01:11:38;;;;;;;5.80;1.00;;;;;;;2.53;100.00;92488.72;2531130;23;20013;-85
2023/03/26 01:12:39;;;;;;;2.20;0.93;;;;;;;2.51;100.00;92488.38;2542462;23;20006;-83
2023/03/26 01:13:47;;;;;;;7.10;1.30;;;;;;;2.48;100.00;92483.84;2542603;23;20028;-84
2023/03/26 01:14:52;;;;;;;3.75;1.08;;;;;;;2.51;100.00;92485.72;2519883;23;20030;-82
2023/03/26 01:15:53;;;;;;;3.50;1.08;;;;;;;2.66;100.00;92475.88;2544525;23;20082;-83
2023/03/26 01:16:59;;;;;;;2.80;1.38;;;;;;;2.70;100.00;92480.03;2530552;23;20002;-83
2023/03/26 01:18:08;;;;;;;2.42;1.02;;;;;;;2.62;100.00;92481.16;2545437;23;20447;-84
2023/03/26 01:19:44;;;;;;;4.22;1.17;;;;;;;2.61;100.00;92478.91;2553602;23;20468;-83
2023/03/26 01:20:48;;;;;;;6.13;1.42;;;;;;;2.44;100.00;92472.53;2515628;23;20010;-85
2023/03/26 01:21:50;;;;;;;7.35;1.95;;;;;;;2.45;100.00;92482.69;2507279;23;20015;-84
2023/03/26 01:22:57;;;;;;;4.43;2.15;;;;;;;2.44;100.00;92478.56;2518991;23;20097;-84
2023/03/26 01:24:04;;;;;;;6.68;2.70;;;;;;;2.46;100.00;92486.13;2543150;23;20002;-81
2023/03/26 01:25:06;;;;;;;14.25;6.13;;;;;;;2.41;100.00;92475.94;2520166;23;20010;-83
2023/03/26 01:26:28;;;;;;;14.18;7.10;;;;;;;2.39;100.00;92473.69;2518882;23;20011;-83
2023/03/26 01:27:39;;;;;;;16.85;5.50;;;;;;;2.35;100.00;92467.66;2538673;23;20015;-84
2023/03/26 01:28:41;;;;;;;9.80;4.20;;;;;;;2.45;100.00;92466.13;2543190;23;20013;-82
2023/03/26 01:29:54;;;;;;;11.38;4.38;;;;;;;2.48;100.00;92463.47;2519423;23;20064;-82
2023/03/26 01:31:08;;;;;;;8.20;3.80;;;;;;;2.49;100.00;92464.97;2520702;23;20611;-85
2023/03/26 01:32:43;;;;;;;8.65;3.63;;;;;;;2.52;100.00;92458.22;2535566;23;20009;-84
2023/03/26 01:33:51;;;;;;;7.80;3.63;;;;;;;2.45;100.00;92460.84;2536471;23;20006;-84
2023/03/26 01:35:11;;;;;;;7.97;3.20;;;;;;;2.42;100.00;92454.47;2520783;23;20006;-84
2023/03/26 01:36:36;;;;;;;6.82;2.75;;;;;;;2.45;100.00;92450.31;2547459;23;20013;-84
2023/03/26 01:37:57;;;;;;;6.20;2.00;;;;;;;2.41;100.00;92442.38;2531222;23;20008;-84
2023/03/26 01:39:05;;;;;;;7.25;2.00;;;;;;;2.37;100.00;92448.81;2527257;23;20012;-84
2023/03/26 01:40:19;;;;;;;4.72;1.70;;;;;;;2.36;100.00;92447.31;2532764;23;20033;-84
2023/03/26 01:41:43;;;;;;;5.57;2.08;;;;;;;2.33;100.00;92440.16;2555845;23;20112;-83
2023/03/26 01:42:54;;;;;;;4.72;1.27;;;;;;;2.38;100.00;92437.91;2530518;23;20014;-82
2023/03/26 01:44:10;;;;;;;3.67;1.52;;;;;;;2.42;100.00;92438.66;2522367;23;20014;-83
2023/03/26 01:45:17;;;;;;;4.63;1.58;;;;;;;2.45;100.00;92435.22;2546250;23;20075;-84
2023/03/26 01:46:21;;;;;;;4.47;1.52;;;;;;;2.59;100.00;92423.13;2543495;23;20005;-82
2023/03/26 01:47:23;;;;;;;5.50;1.40;;;;;;;2.51;100.00;92420.53;2530512;23;19998;-83
2023/03/26 01:48:40;;;;;;;4.03;1.20;;;;;;;2.45;100.00;92416.75;2518020;23;20537;-82
2023/03/26 01:49:41;;;;;;;2.63;1.02;;;;;;;2.44;100.00;92412.63;2512436;23;20013;-85
2023/03/26 01:50:42;;;;;;;2.90;1.23;;;;;;;2.40;100.00;92411.88;2518551;23;20017;-82
2023/03/26 01:51:43;;;;;;;4.35;1.20;;;;;;;2.39;100.00;92407.75;2542717;23;20002;-82
2023/03/26 01:52:45;;;;;;;3.55;1.33;;;;;;;2.46;100.00;92401.72;2530752;23;20349;-83
2023/03/26 01:53:47;;;;;;;3.60;1.10;;;;;;;2.37;100.00;92399.47;2530561;23;20418;-83
2023/03/26 01:54:51;;;;;;;6.07;1.33;;;;;;;2.38;100.00;92390.44;2530673;23;20006;-83
2023/03/26 01:56:16;;;;;;;2.95;1.05;;;;;;;2.41;100.00;92392.28;2519349;23;20178;-83
2023/03/26 01:57:18;;;;;;;3.28;0.95;;;;;;;2.43;100.00;92390.03;2528010;23;20055;-85
2023/03/26 01:58:45;;;;;;;3.28;1.20;;;;;;;2.40;100.00;92382.88;2542107;23;20079;-85
2023/03/26 01:59:58;;;;;;;2.95;1.17;;;;;;;2.31;100.00;92382.53;2554592;23;20005;-85
2023/03/26 02:01:23;;;;;;;6.43;1.40;;;;;;;2.29;100.00;92376.91;2530649;23;20350;-84
2023/03/26 02:02:55;;;;;;;2.78;1.10;;;;;;;2.35;100.00;92374.59;2540166;23;20009;-85
2023/03/26 02:04:07;;;;;;;2.55;1.33;;;;;;;2.36;100.00;92371.59;2486626;23;20020;-85
2023/03/26 02:05:14;;;;;;;1.73;0.95;;;;;;;2.31;100.00;92371.97;2523362;23;20030;-84
2023/03/26 02:06:21;;;;;;;1.98;1.00;;;;;;;2.26;100.00;92367.09;2556779;23;20031;-85
2023/03/26 02:07:28;;;;;;;4.35;1.58;;;;;;;2.20;100.00;92366.00;2540932;23;20027;-85
2023/03/26 02:08:36;;;;;;;2.35;0.80;;;;;;;2.13;100.00;92355.47;2508143;23;20493;-83
2023/03/26 02:09:51;;;;;;;3.58;1.20;;;;;;;2.14;100.00;92354.31;2519695;23;20097;-83
2023/03/26 02:10:58;;;;;;;4.68;1.17;;;;;;;2.16;100.00;92344.91;2520968;23;20035;-83
2023/03/26 02:12:02;;;;;;;5.55;1.25;;;;;;;2.16;100.00;92346.81;2532706;23;20016;-83
2023/03/26 02:13:04;;;;;;;5.20;1.30;;;;;;;2.05;100.00;92351.34;2530443;23;20053;-82
2023/03/26 02:14:08;;;;;;;5.57;1.17;;;;;;;2.03;100.00;92353.63;2518215;23;20726;-84
2023/03/26 02:15:11;;;;;;;4.38;1.17;;;;;;;2.06;100.00;92358.09;2518738;23;20034;-84
2023/03/26 02:16:15;;;;;;;5.00;1.33;;;;;;;2.11;100.00;92355.84;2519360;23;20112;-85
2023/03/26 02:17:18;;;;;;;5.55;1.70;;;;;;;2.06;100.00;92352.84;2507834;23;20038;-84
2023/03/26 02:20:14;;;;;;;5.85;1.65;;;;;;;2.01;100.00;92346.81;2142938;27;20132;-84
2023/03/26 02:21:21;;;;;;;3.80;1.42;;;;;;;2.09;100.00;92352.09;2127592;27;20037;-84
2023/03/26 02:22:28;;;;;;;4.40;1.40;;;;;;;2.11;100.00;92345.31;2115483;27;20605;-85
2023/03/26 02:23:34;;;;;;;3.75;1.42;;;;;;;2.11;100.00;92347.16;2114388;28;20119;-84
2023/03/26 02:24:38;;;;;;;5.65;1.98;;;;;;;2.09;100.00;92341.53;2109390;28;20162;-85
2023/03/26 02:25:40;;;;;;;5.20;1.70;;;;;;;1.98;100.00;92344.22;2103125;28;20051;-85
2023/03/26 02:26:41;;;;;;;4.10;1.20;;;;;;;2.02;100.00;92334.41;2102954;28;20081;-85
2023/03/26 02:27:44;;;;;;;4.13;1.38;;;;;;;2.08;100.00;92340.03;2110148;28;20497;-85
2023/03/26 02:28:46;;;;;;;1.42;0.82;;;;;;;2.09;100.00;92337.00;2102978;28;20024;-84
2023/03/26 02:29:49;;;;;;;3.85;1.00;;;;;;;2.13;100.00;92327.22;2094553;28;20021;-85
2023/03/26 02:30:51;;;;;;;3.65;1.00;;;;;;;2.19;100.00;92323.03;2086509;28;20417;-85
2023/03/26 02:31:52;;;;;;;5.38;1.05;;;;;;;2.19;100.00;92317.78;2094590;28;20031;-84
2023/03/26 02:32:54;;;;;;;4.47;0.95;;;;;;;2.21;100.00;92314.78;2094771;28;20032;-85
2023/03/26 02:33:56;;;;;;;4.88;1.10;;;;;;;2.12;100.00;92319.69;2093610;28;20074;-85
2023/03/26 02:34:58;;;;;;;3.10;1.10;;;;;;;2.08;100.00;92316.31;2103317;28;20024;-84
2023/03/26 02:36:00;;;;;;;2.97;0.88;;;;;;;2.10;100.00;92314.78;2095199;28;20070;-85
2023/03/26 02:37:02;;;;;;;2.55;1.05;;;;;;;2.16;100.00;92307.25;2094238;28;20131;-85
2023/03/26 02:38:05;;;;;;;3.92;1.20;;;;;;;2.19;100.00;92301.94;2098308;28;20270;-86
2023/03/26 02:39:06;;;;;;;5.13;1.35;;;;;;;2.16;100.00;92300.09;2106759;28;20017;-85
2023/03/26 02:40:10;;;;;;;5.45;1.25;;;;;;;2.13;100.00;92302.75;2105347;28;20541;-85
2023/03/26 02:41:11;;;;;;;3.35;1.25;;;;;;;2.28;100.00;92312.09;2108455;28;20071;-86
2023/03/26 02:42:12;;;;;;;2.53;1.08;;;;;;;2.22;100.00;92309.09;2101175;28;20538;-85
2023/03/26 02:43:13;;;;;;;3.55;1.20;;;;;;;2.16;100.00;92309.91;2093606;28;20481;-86
2023/03/26 02:44:15;;;;;;;4.78;1.30;;;;;;;2.16;100.00;92307.25;2102364;28;20520;-85
2023/03/26 02:45:16;;;;;;;2.90;1.17;;;;;;;2.11;100.00;92305.00;2119016;27;20027;-85
2023/03/26 02:46:17;;;;;;;2.53;1.00;;;;;;;2.11;100.00;92299.72;2107116;28;20032;-85
2023/03/26 02:47:19;;;;;;;4.07;1.30;;;;;;;2.13;100.00;92302.75;2094106;28;20033;-84
2023/03/26 02:48:21;;;;;;;5.30;1.23;;;;;;;2.12;100.00;92296.72;2090514;28;20034;-86
2023/03/26 02:49:22;;;;;;;3.45;1.05;;;;;;;2.06;100.00;92292.97;2094631;28;20385;-84
2023/03/26 02:50:24;;;;;;;2.28;1.13;;;;;;;2.06;100.00;92300.13;2093903;28;20031;-86
2023/03/26 02:51:26;;;;;;;3.55;1.10;;;;;;;2.09;100.00;92302.75;2092253;28;20032;-85
2023/03/26 02:52:27;;;;;;;6.10;1.30;;;;;;;2.12;100.00;92306.50;2095462;28;20031;-84
2023/03/26 02:53:28;;;;;;;3.13;1.02;;;;;;;2.08;100.00;92293.34;2107000;28;20512;-85
2023/03/26 02:54:29;;;;;;;3.10;1.15;;;;;;;2.14;100.00;92298.97;2111295;28;20118;-85
2023/03/26 02:55:30;;;;;;;3.95;1.00;;;;;;;2.21;100.00;92304.22;2102776;28;20048;-84
2023/03/26 02:56:32;;;;;;;6.30;1.17;;;;;;;2.17;100.00;92298.22;2102567;28;20028;-85
2023/03/26 02:57:33;;;;;;;6.03;1.67;;;;;;;2.11;100.00;92303.13;2094199;28;20748;-84
2023/03/26 02:58:36;;;;;;;6.63;1.88;;;;;;;2.19;100.00;92301.19;2096309;28;20052;-85
2023/03/26 02:59:37;;;;;;;5.43;1.55;;;;;;;2.22;100.00;92298.56;2094563;28;20082;-82
2023/03/26 03:00:38;;;;;;;4.72;1.30;;;;;;;2.17;100.00;92292.94;2101027;28;20035;-84
2023/03/26 03:01:45;;;;;;;4.50;1.27;;;;;;;2.17;100.00;92301.59;2110178;28;20460;-85
2023/03/26 03:02:48;;;;;;;4.43;1.10;;;;;;;2.19;100.00;92304.59;2106185;28;20150;-84
2023/03/26 03:03:49;;;;;;;4.05;1.10;;;;;;;2.17;100.00;92303.47;2104941;28;21137;-83
2023/03/26 03:04:51;;;;;;;4.20;1.42;;;;;;;2.09;100.00;92299.38;2110993;28;20395;-82
2023/03/26 03:05:54;;;;;;;5.65;1.35;;;;;;;2.10;100.00;92295.59;2110976;28;20500;-83
2023/03/26 03:06:56;;;;;;;2.00;0.93;;;;;;;2.14;100.00;92289.16;2102665;28;20054;-83
2023/03/26 03:07:58;;;;;;;4.15;1.00;;;;;;;2.12;100.00;92282.78;2097880;28;20031;-82
2023/03/26 03:09:03;;;;;;;3.17;1.00;;;;;;;2.17;100.00;92277.88;2092233;28;20097;-85
2023/03/26 03:10:09;;;;;;;1.85;0.70;;;;;;;2.13;100.00;92281.66;2100702;28;20031;-85
2023/03/26 03:11:23;;;;;;;1.42;0.77;;;;;;;2.16;100.00;92273.75;2102980;28;20035;-84
2023/03/26 03:12:24;;;;;;;3.35;1.42;;;;;;;2.11;100.00;92282.03;2107506;28;20432;-84
2023/03/26 03:13:26;;;;;;;3.90;0.93;;;;;;;2.18;100.00;92276.72;2099311;28;20084;-85
2023/03/26 03:14:27;;;;;;;2.33;0.80;;;;;;;2.20;100.00;92271.84;2094022;28;20111;-85
2023/03/26 03:15:28;;;;;;;2.58;1.00;;;;;;;2.20;100.00;92277.13;2094008;28;20098;-85
2023/03/26 03:16:30;;;;;;;2.95;0.90;;;;;;;2.18;100.00;92271.47;2099538;28;20077;-84
2023/03/26 03:17:31;;;;;;;2.70;0.85;;;;;;;2.13;100.00;92266.59;2106468;28;20051;-85
2023/03/26 03:18:33;;;;;;;4.68;1.40;;;;;;;2.14;100.00;92267.34;2103995;28;20093;-85
2023/03/26 03:19:34;;;;;;;2.10;0.85;;;;;;;2.17;100.00;92261.31;2100638;28;20040;-85
2023/03/26 03:20:35;;;;;;;3.72;1.17;;;;;;;2.18;100.00;92258.28;2091925;28;20025;-85
2023/03/26 03:21:36;;;;;;;5.88;1.20;;;;;;;2.17;100.00;92248.13;2101064;28;20059;-83
2023/03/26 03:22:37;;;;;;;3.28;1.23;;;;;;;2.14;100.00;92244.34;2109232;28;20358;-83
2023/03/26 03:23:38;;;;;;;3.53;0.80;;;;;;;2.13;100.00;92234.22;2102311;28;20059;-83
2023/03/26 03:24:39;;;;;;;4.20;1.00;;;;;;;2.13;100.00;92242.13;2110666;28;20047;-82
2023/03/26 03:25:41;;;;;;;3.70;1.40;;;;;;;2.20;100.00;92239.47;2110836;28;20018;-83
2023/03/26 03:26:44;;;;;;;3.83;1.40;;;;;;;2.21;100.00;92233.03;2110897;28;20404;-83
2023/03/26 03:27:46;;;;;;;3.60;1.17;;;;;;;2.16;100.00;92236.84;2110030;28;20058;-82
2023/03/26 03:28:55;;;;;;;3.22;1.23;;;;;;;2.19;100.00;92233.41;2119046;28;20026;-83
2023/03/26 03:30:03;;;;;;;2.35;0.80;;;;;;;2.25;100.00;92237.16;2110682;28;20031;-83
2023/03/26 03:31:04;;;;;;;6.03;1.20;;;;;;;2.24;100.00;92237.56;2093386;28;20048;-83
2023/03/26 03:32:05;;;;;;;3.00;1.20;;;;;;;2.25;100.00;92236.41;2096253;28;20099;-82
2023/03/26 03:33:06;;;;;;;4.82;1.58;;;;;;;2.25;100.00;92239.06;2085719;28;20135;-82
2023/03/26 03:34:07;;;;;;;7.07;1.80;;;;;;;2.27;100.00;92242.78;2083255;28;20030;-82
2023/03/26 03:35:08;;;;;;;7.45;1.55;;;;;;;2.30;100.00;92245.81;2085961;28;20033;-83
2023/03/26 03:36:10;;;;;;;5.03;1.38;;;;;;;2.31;100.00;92229.59;2095871;28;20094;-83
2023/03/26 03:37:11;;;;;;;4.47;1.77;;;;;;;2.36;100.00;92236.34;2097076;28;20473;-82
2023/03/26 03:38:12;;;;;;;6.15;1.70;;;;;;;2.31;100.00;92232.22;2101048;28;20044;-82
2023/03/26 03:39:14;;;;;;;6.00;2.55;;;;;;;2.33;100.00;92229.97;2100525;28;20024;-84
2023/03/26 03:40:16;;;;;;;5.28;1.88;;;;;;;2.32;100.00;92225.81;2092539;28;20031;-85
2023/03/26 03:41:17;;;;;;;3.85;1.52;;;;;;;2.34;100.00;92231.47;2096858;28;20017;-85
2023/03/26 03:42:19;;;;;;;2.45;1.20;;;;;;;2.34;100.00;92225.44;2096888;28;20115;-85
2023/03/26 03:43:20;;;;;;;8.43;1.92;;;;;;;2.34;100.00;92228.84;2100745;28;20028;-85
2023/03/26 03:44:21;;;;;;;3.95;1.30;;;;;;;2.37;100.00;92229.94;2108863;28;20065;-85
2023/03/26 03:45:22;;;;;;;2.83;1.13;;;;;;;2.37;100.00;92211.47;2108663;28;20023;-85
2023/03/26 03:46:24;;;;;;;3.45;1.38;;;;;;;2.42;100.00;92205.81;2096928;28;20024;-84
2023/03/26 03:47:29;;;;;;;3.72;0.90;;;;;;;2.44;100.00;92209.56;2096895;28;20035;-84
2023/03/26 03:48:37;;;;;;;8.70;1.35;;;;;;;2.47;100.00;92206.16;2097124;28;20385;-85
2023/03/26 03:49:44;;;;;;;3.90;1.33;;;;;;;2.43;100.00;92207.31;2099731;28;20433;-85
2023/03/26 03:50:52;;;;;;;4.55;1.35;;;;;;;2.42;100.00;92203.94;2088919;28;20025;-84
2023/03/26 03:51:54;;;;;;;5.53;2.05;;;;;;;2.44;100.00;92198.25;2094619;28;20537;-85
2023/03/26 03:54:55;;;;;;;8.43;2.58;;;;;;;2.45;100.00;92202.38;2112457;28;20023;-85
2023/03/26 03:56:00;;;;;;;4.75;2.20;;;;;;;2.48;100.00;92198.97;2096254;28;20481;-85
2023/03/26 03:57:02;;;;;;;5.65;2.28;;;;;;;2.48;100.00;92201.63;2089803;28;20027;-85
2023/03/26 03:58:04;;;;;;;6.70;1.52;;;;;;;2.47;100.00;92205.41;2087553;28;20047;-83
2023/03/26 03:59:10;;;;;;;3.85;1.58;;;;;;;2.50;100.00;92205.38;2094049;28;20064;-83
2023/03/26 04:00:20;;;;;;;2.88;1.73;;;;;;;2.47;100.00;92200.88;2097190;28;20032;-84
2023/03/26 04:01:29;;;;;;;3.72;1.10;;;;;;;2.44;100.00;92206.16;2095235;28;20032;-83
2023/03/26 04:02:36;;;;;;;4.65;0.98;;;;;;;2.39;100.00;92199.41;2105871;28;20507;-83
2023/03/26 04:03:46;;;;;;;2.03;0.80;;;;;;;2.36;100.00;92194.91;2096643;28;20086;-83
2023/03/26 04:04:50;;;;;;;3.40;0.90;;;;;;;2.46;100.00;92194.09;2098628;28;20028;-82
2023/03/26 04:05:54;;;;;;;4.38;1.08;;;;;;;2.32;100.00;92190.78;2096970;28;20090;-82
2023/03/26 04:07:01;;;;;;;4.15;1.05;;;;;;;2.34;100.00;92184.00;2088955;28;20032;-83
2023/03/26 04:08:11;;;;;;;2.67;1.08;;;;;;;2.43;100.00;92191.50;2104403;28;20024;-84
2023/03/26 04:09:17;;;;;;;2.40;0.95;;;;;;;2.43;100.00;92186.97;2095559;28;20039;-82
2023/03/26 04:10:19;;;;;;;4.95;1.33;;;;;;;2.39;100.00;92194.16;2097562;28;20036;-84
2023/03/26 04:11:30;;;;;;;6.05;1.40;;;;;;;2.35;100.00;92200.56;2088146;28;20029;-83
2023/03/26 04:12:42;;;;;;;3.33;0.88;;;;;;;2.45;100.00;92197.13;2097898;28;20025;-84
2023/03/26 04:13:50;;;;;;;3.72;0.93;;;;;;;2.39;100.00;92194.16;2092354;28;20035;-83
2023/03/26 04:14:56;;;;;;;5.15;1.13;;;;;;;2.43;100.00;92197.50;2095043;28;20111;-82
2023/03/26 04:15:57;;;;;;;4.57;1.25;;;;;;;2.45;100.00;92187.31;2092120;28;20508;-83
2023/03/26 04:17:06;;;;;;;7.20;1.65;;;;;;;2.44;100.00;92183.19;2081050;28;20025;-83
2023/03/26 04:18:19;;;;;;;5.10;1.30;;;;;;;2.46;100.00;92178.28;2094417;28;20032;-83
2023/03/26 04:19:26;;;;;;;6.60;1.73;;;;;;;2.48;100.00;92183.16;2097031;28;20598;-83
2023/03/26 04:20:36;;;;;;;4.20;1.77;;;;;;;2.48;100.00;92180.53;2089978;28;20123;-83
2023/03/26 04:21:41;;;;;;;7.07;1.80;;;;;;;2.48;100.00;92176.00;2090509;28;20029;-84
2023/03/26 04:22:45;;;;;;;5.93;1.40;;;;;;;2.48;100.00;92168.09;2089084;28;20123;-83
2023/03/26 04:23:48;;;;;;;5.93;1.30;;;;;;;2.46;100.00;92178.28;2096490;28;20512;-82
2023/03/26 04:24:53;;;;;;;3.95;1.20;;;;;;;2.45;100.00;92174.13;2096558;28;20123;-84
2023/03/26 04:26:03;;;;;;;5.60;1.80;;;;;;;2.48;100.00;92169.97;2092726;28;20066;-83
2023/03/26 04:27:16;;;;;;;7.78;1.95;;;;;;;2.48;100.00;92172.63;2096310;28;20119;-83
2023/03/26 04:28:31;;;;;;;3.13;1.50;;;;;;;2.49;100.00;92174.09;2101919;28;20055;-85
2023/03/26 04:29:41;;;;;;;2.45;1.13;;;;;;;2.47;100.00;92174.50;2112282;27;20027;-85
2023/03/26 04:30:47;;;;;;;4.55;1.20;;;;;;;2.49;100.00;92172.22;2104450;28;20022;-84
2023/03/26 04:31:57;;;;;;;9.25;1.50;;;;;;;2.51;100.00;92169.22;2089026;28;20033;-85
2023/03/26 04:33:05;;;;;;;10.48;1.60;;;;;;;2.59;100.00;92178.56;2090462;28;20025;-84
2023/03/26 04:34:22;;;;;;;7.50;1.27;;;;;;;2.60;100.00;92174.03;2098230;28;20078;-85
2023/03/26 04:35:33;;;;;;;5.22;1.30;;;;;;;2.64;100.00;92177.41;2097523;28;20036;-85
2023/03/26 04:36:41;;;;;;;3.63;1.30;;;;;;;2.65;100.00;92173.63;2096571;28;20029;-83
2023/03/26 04:37:44;;;;;;;5.28;1.23;;;;;;;2.67;100.00;92171.34;2096700;28;20103;-83
2023/03/26 04:38:50;;;;;;;7.35;3.83;;;;;;;2.67;100.00;92163.44;2096674;28;20560;-84
2023/03/26 04:39:55;;;;;;;4.47;2.90;;;;;;;2.70;100.00;92170.56;2097154;28;20369;-84
2023/03/26 04:41:06;;;;;;;8.27;2.90;;;;;;;2.70;100.00;92160.75;2093584;28;20083;-84
2023/03/26 04:42:10;;;;;;;4.65;2.08;;;;;;;2.73;100.00;92151.34;2096923;28;20043;-85
2023/03/26 04:43:12;;;;;;;6.82;1.50;;;;;;;2.74;100.00;92144.91;2094260;28;20032;-85
2023/03/26 04:44:15;;;;;;;6.60;1.67;;;;;;;2.77;100.00;92147.53;2108541;28;20031;-85
2023/03/26 04:45:22;;;;;;;7.00;1.40;;;;;;;2.83;100.00;92147.84;2104246;28;20036;-84
2023/03/26 04:46:32;;;;;;;4.55;1.30;;;;;;;2.75;100.00;92146.41;2081533;28;20348;-83
2023/03/26 04:47:37;;;;;;;;;;;;;;;2.75;100.00;92147.16;2088452;28;20028;-82
2023/03/26 04:48:45;;;;;;;5.88;1.20;;;;;;;2.76;100.00;92151.28;2087349;28;20317;-83
2023/03/26 04:49:55;;;;;;;4.65;1.20;;;;;;;2.78;100.00;92146.38;2098064;28;20020;-83
2023/03/26 04:51:08;;;;;;;7.28;1.50;;;;;;;2.76;100.00;92145.25;2102174;28;20492;-82
2023/03/26 04:52:16;;;;;;;5.88;1.25;;;;;;;2.77;100.00;92131.69;2095000;28;20406;-82
2023/03/26 04:53:23;;;;;;;5.90;1.42;;;;;;;2.78;100.00;92124.53;2089170;28;20037;-82
2023/03/26 04:54:34;;;;;;;5.45;1.20;;;;;;;2.85;100.00;92118.41;2088952;28;20482;-83
2023/03/26 04:56:17;;;;;;;4.13;1.17;;;;;;;2.91;100.00;92114.97;2106032;27;20027;-82
2023/03/26 04:57:45;;;;;;;2.95;1.27;;;;;;;2.95;100.00;92120.22;2111216;28;20035;-84
2023/03/26 04:58:50;;;;;;;8.82;1.98;;;;;;;3.04;100.00;92115.25;2106836;28;20023;-83
2023/03/26 04:59:59;;;;;;;3.15;1.33;;;;;;;3.03;100.00;92106.56;2092070;28;20119;-83
2023/03/26 05:01:04;;;;;;;6.80;1.40;;;;;;;2.97;100.00;92102.09;2089773;28;20095;-82
2023/03/26 05:02:08;;;;;;;5.22;1.58;;;;;;;2.98;100.00;92095.66;2092134;28;20028;-83
2023/03/26 05:03:19;;;;;;;3.67;1.38;;;;;;;2.94;100.00;92100.22;2102925;28;20031;-83
2023/03/26 05:04:35;;;;;;;5.55;1.50;;;;;;;2.97;100.00;92088.91;2098989;27;20146;-83
2023/03/26 05:05:45;;;;;;;5.47;1.75;;;;;;;2.99;100.00;92090.03;2101359;28;20393;-83
2023/03/26 05:06:55;;;;;;;8.50;1.92;;;;;;;2.99;100.00;92099.84;2103886;28;20024;-84
2023/03/26 05:07:59;;;;;;;6.18;1.73;;;;;;;2.94;100.00;92087.03;2101996;28;20032;-83
2023/03/26 05:09:09;;;;;;;4.10;1.30;;;;;;;2.96;100.00;92088.16;2096148;28;20461;-84
2023/03/26 05:10:19;;;;;;;3.95;1.30;;;;;;;2.96;100.00;92084.78;2095921;28;20458;-85
2023/03/26 05:11:25;;;;;;;11.40;1.75;;;;;;;2.93;100.00;92075.00;2090272;28;20382;-84
2023/03/26 05:12:35;;;;;;;8.70;1.52;;;;;;;2.96;100.00;92074.97;2084780;28;20030;-84
2023/03/26 05:13:41;;;;;;;8.85;1.75;;;;;;;2.92;100.00;92076.88;2094144;28;20029;-85